sensor_id;sensor_type;location;lat;lon;timestamp;temperature;humidity
37890;DHT22;23730;49.120;12.214;2022-07-01T03:02:39;18.00;99.90
37890;DHT22;23730;49.120;12.214;2022-07-01T03:07:42;18.00;99.90
37890;DHT22;23730;49.120;12.214;2022-07-01T03:12:45;17.90;99.90
37890;DHT22;23730;49.120;12.214;2022-07-01T03:17:47;17.90;99.90
37890;DHT22;23730;49.120;12.214;2022-07-01T03:22:50;17.90;99.90
37890;DHT22;23730;49.120;12.214;2022-07-01T03:27:52;17.90;99.90
37890;DHT22;23730;49.120;12.214;2022-07-01T03:32:54;17.80;99.90
37890;DHT22;23730;49.120;12.214;2022-07-01T03:37:56;17.80;99.90
37890;DHT22;23730;49.120;12.214;2022-07-01T03:42:59;17.70;99.90
37890;DHT22;23730;49.120;12.214;2022-07-01T03:48:01;17.60;99.90
37890;DHT22;23730;49.120;12.214;2022-07-01T03:53:04;17.60;99.90
37890;DHT22;23730;49.120;12.214;2022-07-01T03:58:24;17.60;99.90
37890;DHT22;23730;49.120;12.214;2022-07-01T04:03:26;17.50;99.90
37890;DHT22;23730;49.120;12.214;2022-07-01T04:08:29;17.50;99.90
37890;DHT22;23730;49.120;12.214;2022-07-01T04:13:30;17.50;99.90
37890;DHT22;23730;49.120;12.214;2022-07-01T04:18:33;17.40;99.90
37890;DHT22;23730;49.120;12.214;2022-07-01T04:23:35;17.40;99.90
37890;DHT22;23730;49.120;12.214;2022-07-01T04:28:37;17.40;99.90
37890;DHT22;23730;49.120;12.214;2022-07-01T04:33:39;17.50;99.90
37890;DHT22;23730;49.120;12.214;2022-07-01T04:38:41;17.50;99.90
37890;DHT22;23730;49.120;12.214;2022-07-01T04:43:43;17.60;99.90
37890;DHT22;23730;49.120;12.214;2022-07-01T04:48:45;17.60;99.90
37890;DHT22;23730;49.120;12.214;2022-07-01T04:53:47;17.70;99.90
37890;DHT22;23730;49.120;12.214;2022-07-01T04:58:50;17.70;99.90
37890;DHT22;23730;49.120;12.214;2022-07-01T05:03:52;17.90;99.90
37890;DHT22;23730;49.120;12.214;2022-07-01T05:08:54;18.20;99.90
37890;DHT22;23730;49.120;12.214;2022-07-01T05:13:56;18.50;99.90
37890;DHT22;23730;49.120;12.214;2022-07-01T05:18:58;18.60;99.90
37890;DHT22;23730;49.120;12.214;2022-07-01T05:24:19;18.90;99.90
37890;DHT22;23730;49.120;12.214;2022-07-01T05:29:21;18.80;99.90
37890;DHT22;23730;49.120;12.214;2022-07-01T05:34:23;18.40;99.90
37890;DHT22;23730;49.120;12.214;2022-07-01T05:39:25;18.30;99.90
37890;DHT22;23730;49.120;12.214;2022-07-01T05:44:27;18.30;99.90
37890;DHT22;23730;49.120;12.214;2022-07-01T05:49:29;18.40;99.90
37890;DHT22;23730;49.120;12.214;2022-07-01T05:54:31;18.90;99.90
37890;DHT22;23730;49.120;12.214;2022-07-01T05:59:33;19.30;99.90
37890;DHT22;23730;49.120;12.214;2022-07-01T06:04:35;19.50;99.90
37890;DHT22;23730;49.120;12.214;2022-07-01T06:09:38;19.90;99.90
37890;DHT22;23730;49.120;12.214;2022-07-01T06:14:40;20.50;99.90
37890;DHT22;23730;49.120;12.214;2022-07-01T06:19:43;20.40;99.90
37890;DHT22;23730;49.120;12.214;2022-07-01T06:24:45;19.60;99.90
37890;DHT22;23730;49.120;12.214;2022-07-01T06:29:46;19.40;99.90
37890;DHT22;23730;49.120;12.214;2022-07-01T06:34:48;19.60;99.90
37890;DHT22;23730;49.120;12.214;2022-07-01T06:39:51;19.60;99.90
37890;DHT22;23730;49.120;12.214;2022-07-01T06:44:53;19.60;99.90
37890;DHT22;23730;49.120;12.214;2022-07-01T06:49:55;19.40;99.90
37890;DHT22;23730;49.120;12.214;2022-07-01T06:55:02;18.90;99.90
37890;DHT22;23730;49.120;12.214;2022-07-01T07:00:05;18.80;99.90
37890;DHT22;23730;49.120;12.214;2022-07-01T07:05:08;19.00;99.90
37890;DHT22;23730;49.120;12.214;2022-07-01T07:10:12;19.20;99.90
37890;DHT22;23730;49.120;12.214;2022-07-01T07:15:14;19.60;99.90
37890;DHT22;23730;49.120;12.214;2022-07-01T07:20:17;19.50;99.90
37890;DHT22;23730;49.120;12.214;2022-07-01T07:25:19;19.10;99.90
37890;DHT22;23730;49.120;12.214;2022-07-01T07:30:22;18.60;99.90
37890;DHT22;23730;49.120;12.214;2022-07-01T07:35:24;18.30;99.90
37890;DHT22;23730;49.120;12.214;2022-07-01T07:40:26;17.80;99.90
37890;DHT22;23730;49.120;12.214;2022-07-01T07:45:28;17.40;99.90
37890;DHT22;23730;49.120;12.214;2022-07-01T07:50:30;17.20;99.90
37890;DHT22;23730;49.120;12.214;2022-07-01T07:55:32;17.20;99.90
37890;DHT22;23730;49.120;12.214;2022-07-01T08:00:35;17.00;99.90
37890;DHT22;23730;49.120;12.214;2022-07-01T08:05:40;16.80;99.90
37890;DHT22;23730;49.120;12.214;2022-07-01T08:10:43;16.70;99.90
37890;DHT22;23730;49.120;12.214;2022-07-01T08:15:45;16.50;99.90
37890;DHT22;23730;49.120;12.214;2022-07-01T08:20:47;16.20;99.90
37890;DHT22;23730;49.120;12.214;2022-07-01T08:25:50;16.00;99.90
37890;DHT22;23730;49.120;12.214;2022-07-01T08:30:52;15.80;99.90
37890;DHT22;23730;49.120;12.214;2022-07-01T08:35:54;15.80;99.90
37890;DHT22;23730;49.120;12.214;2022-07-01T08:40:56;15.80;99.90
37890;DHT22;23730;49.120;12.214;2022-07-01T08:46:00;15.80;99.90
37890;DHT22;23730;49.120;12.214;2022-07-01T08:51:03;15.70;99.90
37890;DHT22;23730;49.120;12.214;2022-07-01T08:56:08;15.80;99.90
37890;DHT22;23730;49.120;12.214;2022-07-01T09:01:28;16.00;99.90
37890;DHT22;23730;49.120;12.214;2022-07-01T09:06:30;16.50;99.90
37890;DHT22;23730;49.120;12.214;2022-07-01T09:11:32;16.50;99.90
37890;DHT22;23730;49.120;12.214;2022-07-01T09:16:49;16.40;99.90
37890;DHT22;23730;49.120;12.214;2022-07-01T09:21:57;16.30;99.90
37890;DHT22;23730;49.120;12.214;2022-07-01T09:27:07;16.70;99.90
37890;DHT22;23730;49.120;12.214;2022-07-01T09:32:21;17.00;99.90
37890;DHT22;23730;49.120;12.214;2022-07-01T09:37:25;16.90;99.90
37890;DHT22;23730;49.120;12.214;2022-07-01T09:42:27;16.80;99.90
37890;DHT22;23730;49.120;12.214;2022-07-01T09:47:30;17.00;99.90
37890;DHT22;23730;49.120;12.214;2022-07-01T09:52:34;16.80;99.90
37890;DHT22;23730;49.120;12.214;2022-07-01T09:57:38;16.50;99.90
37890;DHT22;23730;49.120;12.214;2022-07-01T10:02:40;16.50;99.90
37890;DHT22;23730;49.120;12.214;2022-07-01T10:07:52;16.60;99.90
37890;DHT22;23730;49.120;12.214;2022-07-01T10:13:02;17.20;99.90
37890;DHT22;23730;49.120;12.214;2022-07-01T10:18:05;17.20;99.90
37890;DHT22;23730;49.120;12.214;2022-07-01T10:23:07;16.80;99.90
37890;DHT22;23730;49.120;12.214;2022-07-01T10:33:50;16.30;99.90
37890;DHT22;23730;49.120;12.214;2022-07-01T10:44:12;15.70;99.90
37890;DHT22;23730;49.120;12.214;2022-07-01T10:59:44;15.30;99.90
37890;DHT22;23730;49.120;12.214;2022-07-01T11:04:47;16.00;99.90
37890;DHT22;23730;49.120;12.214;2022-07-01T11:09:49;16.10;99.90
37890;DHT22;23730;49.120;12.214;2022-07-01T11:14:52;16.00;99.90
37890;DHT22;23730;49.120;12.214;2022-07-01T11:19:58;16.00;99.90
37890;DHT22;23730;49.120;12.214;2022-07-01T11:25:07;16.30;99.90
37890;DHT22;23730;49.120;12.214;2022-07-01T11:30:11;16.40;99.90
37890;DHT22;23730;49.120;12.214;2022-07-01T11:35:26;16.50;99.90
37890;DHT22;23730;49.120;12.214;2022-07-01T11:40:50;16.40;99.90
37890;DHT22;23730;49.120;12.214;2022-07-01T11:45:54;17.00;99.90
37890;DHT22;23730;49.120;12.214;2022-07-01T11:50:58;17.10;99.90
37890;DHT22;23730;49.120;12.214;2022-07-01T11:56:01;17.10;99.90
37890;DHT22;23730;49.120;12.214;2022-07-01T12:01:03;17.20;99.90
37890;DHT22;23730;49.120;12.214;2022-07-01T12:06:07;16.80;99.90
37890;DHT22;23730;49.120;12.214;2022-07-01T12:11:09;16.60;99.90
37890;DHT22;23730;49.120;12.214;2022-07-01T12:16:13;16.40;99.90
37890;DHT22;23730;49.120;12.214;2022-07-01T12:21:15;16.30;99.90
37890;DHT22;23730;49.120;12.214;2022-07-01T12:26:17;16.30;99.90
37890;DHT22;23730;49.120;12.214;2022-07-01T12:31:19;16.10;99.90
37890;DHT22;23730;49.120;12.214;2022-07-01T12:36:21;16.10;99.90
37890;DHT22;23730;49.120;12.214;2022-07-01T12:41:31;15.90;99.90
37890;DHT22;23730;49.120;12.214;2022-07-01T12:46:40;15.80;99.90
37890;DHT22;23730;49.120;12.214;2022-07-01T12:51:42;15.70;99.90
37890;DHT22;23730;49.120;12.214;2022-07-01T12:56:44;15.50;99.90
37890;DHT22;23730;49.120;12.214;2022-07-01T13:01:46;15.40;99.90
37890;DHT22;23730;49.120;12.214;2022-07-01T13:06:48;15.50;99.90
37890;DHT22;23730;49.120;12.214;2022-07-01T13:11:50;15.50;99.90
37890;DHT22;23730;49.120;12.214;2022-07-01T13:16:52;15.40;99.90
37890;DHT22;23730;49.120;12.214;2022-07-01T13:21:54;15.50;99.90
37890;DHT22;23730;49.120;12.214;2022-07-01T13:26:56;15.30;99.90
37890;DHT22;23730;49.120;12.214;2022-07-01T13:31:58;15.20;99.90
37890;DHT22;23730;49.120;12.214;2022-07-01T13:37:00;15.20;99.90
37890;DHT22;23730;49.120;12.214;2022-07-01T13:42:03;15.20;99.90
37890;DHT22;23730;49.120;12.214;2022-07-01T13:47:05;15.30;99.90
37890;DHT22;23730;49.120;12.214;2022-07-01T13:52:11;15.30;99.90
37890;DHT22;23730;49.120;12.214;2022-07-01T13:57:14;15.00;99.90
37890;DHT22;23730;49.120;12.214;2022-07-01T14:02:17;15.20;99.90
37890;DHT22;23730;49.120;12.214;2022-07-01T14:07:20;14.90;99.90
37890;DHT22;23730;49.120;12.214;2022-07-01T14:12:22;14.20;99.90
37890;DHT22;23730;49.120;12.214;2022-07-01T14:17:29;13.90;99.90
37890;DHT22;23730;49.120;12.214;2022-07-01T14:22:31;13.80;99.90
37890;DHT22;23730;49.120;12.214;2022-07-01T14:27:33;13.60;99.90
37890;DHT22;23730;49.120;12.214;2022-07-01T14:32:35;13.50;99.90
37890;DHT22;23730;49.120;12.214;2022-07-01T14:37:37;13.50;99.90
37890;DHT22;23730;49.120;12.214;2022-07-01T14:42:41;13.50;99.90
37890;DHT22;23730;49.120;12.214;2022-07-01T14:47:44;13.40;99.90
37890;DHT22;23730;49.120;12.214;2022-07-01T14:52:51;13.30;99.90
37890;DHT22;23730;49.120;12.214;2022-07-01T14:57:54;13.20;99.90
37890;DHT22;23730;49.120;12.214;2022-07-01T15:02:56;13.10;99.90
37890;DHT22;23730;49.120;12.214;2022-07-01T15:07:59;13.00;99.90
37890;DHT22;23730;49.120;12.214;2022-07-01T15:13:01;13.00;99.90
37890;DHT22;23730;49.120;12.214;2022-07-01T15:18:03;12.90;99.90
37890;DHT22;23730;49.120;12.214;2022-07-01T15:23:05;13.00;99.90
37890;DHT22;23730;49.120;12.214;2022-07-01T15:28:07;13.00;99.90
37890;DHT22;23730;49.120;12.214;2022-07-01T15:33:09;13.00;99.90
37890;DHT22;23730;49.120;12.214;2022-07-01T15:38:11;12.90;99.90
37890;DHT22;23730;49.120;12.214;2022-07-01T15:43:13;13.10;99.90
37890;DHT22;23730;49.120;12.214;2022-07-01T15:48:15;13.10;99.90
37890;DHT22;23730;49.120;12.214;2022-07-01T15:53:19;13.10;99.90
37890;DHT22;23730;49.120;12.214;2022-07-01T15:58:24;13.10;99.90
37890;DHT22;23730;49.120;12.214;2022-07-01T16:03:26;13.10;99.90
37890;DHT22;23730;49.120;12.214;2022-07-01T16:08:36;13.10;99.90
37890;DHT22;23730;49.120;12.214;2022-07-01T16:13:52;13.20;99.90
37890;DHT22;23730;49.120;12.214;2022-07-01T16:18:56;13.50;99.90
37890;DHT22;23730;49.120;12.214;2022-07-01T16:24:02;14.10;99.90
37890;DHT22;23730;49.120;12.214;2022-07-01T16:29:05;14.20;99.90
37890;DHT22;23730;49.120;12.214;2022-07-01T16:34:08;14.30;99.90
37890;DHT22;23730;49.120;12.214;2022-07-01T16:39:16;14.10;99.90
37890;DHT22;23730;49.120;12.214;2022-07-01T16:45:16;14.20;99.90
37890;DHT22;23730;49.120;12.214;2022-07-01T16:50:07;14.20;99.90
37890;DHT22;23730;49.120;12.214;2022-07-01T16:55:16;14.30;99.90
37890;DHT22;23730;49.120;12.214;2022-07-01T17:00:19;14.60;99.90
37890;DHT22;23730;49.120;12.214;2022-07-01T17:05:22;14.80;99.90
37890;DHT22;23730;49.120;12.214;2022-07-01T17:10:27;14.80;99.90
37890;DHT22;23730;49.120;12.214;2022-07-01T17:15:30;15.10;99.90
37890;DHT22;23730;49.120;12.214;2022-07-01T17:20:34;15.00;99.90
37890;DHT22;23730;49.120;12.214;2022-07-01T17:25:51;15.10;99.90
37890;DHT22;23730;49.120;12.214;2022-07-01T17:36:14;15.30;99.90
37890;DHT22;23730;49.120;12.214;2022-07-01T17:41:23;14.90;99.90
37890;DHT22;23730;49.120;12.214;2022-07-01T17:46:32;14.70;99.90
37890;DHT22;23730;49.120;12.214;2022-07-01T17:51:38;14.50;99.90
37890;DHT22;23730;49.120;12.214;2022-07-01T17:56:41;14.10;99.90
37890;DHT22;23730;49.120;12.214;2022-07-01T18:01:44;13.70;99.90
37890;DHT22;23730;49.120;12.214;2022-07-01T18:06:54;13.40;99.90
37890;DHT22;23730;49.120;12.214;2022-07-01T18:12:06;13.30;99.90
37890;DHT22;23730;49.120;12.214;2022-07-01T18:17:58;13.10;99.90
37890;DHT22;23730;49.120;12.214;2022-07-01T18:23:13;13.00;99.90
37890;DHT22;23730;49.120;12.214;2022-07-01T18:28:20;13.20;99.90
37890;DHT22;23730;49.120;12.214;2022-07-01T18:33:37;13.10;99.90
37890;DHT22;23730;49.120;12.214;2022-07-01T18:38:44;13.50;99.90
37890;DHT22;23730;49.120;12.214;2022-07-01T18:43:47;14.30;99.90
37890;DHT22;23730;49.120;12.214;2022-07-01T18:48:55;14.50;99.90
37890;DHT22;23730;49.120;12.214;2022-07-01T18:53:57;14.80;99.90
37890;DHT22;23730;49.120;12.214;2022-07-01T18:58:59;15.30;99.90
37890;DHT22;23730;49.120;12.214;2022-07-01T19:04:02;15.70;99.90
37890;DHT22;23730;49.120;12.214;2022-07-01T19:09:04;15.70;99.90
37890;DHT22;23730;49.120;12.214;2022-07-01T19:14:06;15.30;99.90
37890;DHT22;23730;49.120;12.214;2022-07-01T19:19:08;14.20;99.90
37890;DHT22;23730;49.120;12.214;2022-07-01T19:24:11;13.10;99.90
37890;DHT22;23730;49.120;12.214;2022-07-01T19:29:13;12.40;99.90
37890;DHT22;23730;49.120;12.214;2022-07-01T19:34:15;11.80;99.90
37890;DHT22;23730;49.120;12.214;2022-07-01T19:39:17;11.40;99.90
37890;DHT22;23730;49.120;12.214;2022-07-01T19:44:19;11.10;99.90
37890;DHT22;23730;49.120;12.214;2022-07-01T19:49:21;10.90;99.90
37890;DHT22;23730;49.120;12.214;2022-07-01T19:54:23;10.80;99.90
37890;DHT22;23730;49.120;12.214;2022-07-01T19:59:30;10.70;99.90
37890;DHT22;23730;49.120;12.214;2022-07-01T20:04:31;10.60;99.90
37890;DHT22;23730;49.120;12.214;2022-07-01T20:09:34;10.50;99.90
37890;DHT22;23730;49.120;12.214;2022-07-01T20:14:36;10.50;99.90
37890;DHT22;23730;49.120;12.214;2022-07-01T20:19:38;10.40;99.90
37890;DHT22;23730;49.120;12.214;2022-07-01T20:24:40;10.40;99.90
37890;DHT22;23730;49.120;12.214;2022-07-01T20:29:43;10.50;99.90
37890;DHT22;23730;49.120;12.214;2022-07-01T20:34:47;10.60;99.90
